createdAt,value
2019-05-28T00:00:19.202Z,15.63
2019-05-28T00:02:48.858Z,14.87
2019-05-28T00:05:19.102Z,15.73
2019-05-28T00:07:48.525Z,15.30
2019-05-28T00:10:18.281Z,15.53
2019-05-28T00:12:47.702Z,15.93
2019-05-28T00:15:17.654Z,15.10
2019-05-28T00:17:47.152Z,14.40
2019-05-28T00:20:16.734Z,15.37
2019-05-28T00:22:46.225Z,15.53
2019-05-28T00:25:15.722Z,14.90
2019-05-28T00:27:45.583Z,15.80
2019-05-28T00:30:20.223Z,16.40
2019-05-28T00:32:46.870Z,15.23
2019-05-28T00:35:16.737Z,15.40
2019-05-28T00:37:46.799Z,14.17
2019-05-28T00:40:16.242Z,14.60
2019-05-28T00:42:46.009Z,14.53
2019-05-28T00:45:16.116Z,14.33
2019-05-28T00:47:45.502Z,13.90
2019-05-28T00:50:16.369Z,14.20
2019-05-28T00:52:45.805Z,13.77
2019-05-28T00:55:15.574Z,14.37
2019-05-28T00:57:47.926Z,14.23
2019-05-28T01:00:34.233Z,16.20
2019-05-28T01:02:50.648Z,16.10
2019-05-28T01:05:20.129Z,15.27
2019-05-28T01:07:49.497Z,14.93
2019-05-28T01:10:18.902Z,15.30
2019-05-28T01:12:48.813Z,15.13
2019-05-28T01:15:18.681Z,14.13
2019-05-28T01:17:48.120Z,15.23
2019-05-28T01:20:17.791Z,14.30
2019-05-28T01:22:47.475Z,15.43
2019-05-28T01:25:17.280Z,14.87
2019-05-28T01:27:46.712Z,14.33
2019-05-28T01:30:16.212Z,15.43
2019-05-28T01:32:45.955Z,14.93
2019-05-28T01:35:15.694Z,14.03
2019-05-28T01:37:45.090Z,14.20
2019-05-28T01:40:15.705Z,15.40
2019-05-28T01:42:45.124Z,14.53
2019-05-28T01:45:16.076Z,14.73
2019-05-28T01:47:45.798Z,14.27
2019-05-28T01:50:15.370Z,13.97
2019-05-28T01:52:45.382Z,14.17
2019-05-28T01:55:14.954Z,13.77
2019-05-28T01:57:44.677Z,13.80
2019-05-28T02:00:14.929Z,13.83
2019-05-28T02:02:44.404Z,14.27
2019-05-28T02:05:14.282Z,14.30
2019-05-28T02:07:43.734Z,13.63
2019-05-28T02:10:15.184Z,13.57
2019-05-28T02:12:44.921Z,13.97
2019-05-28T02:15:14.953Z,14.07
2019-05-28T02:17:44.445Z,13.83
2019-05-28T02:20:14.312Z,14.17
2019-05-28T02:22:43.732Z,14.90
2019-05-28T02:25:13.295Z,13.90
2019-05-28T02:27:43.058Z,14.23
2019-05-28T02:30:13.130Z,13.70
2019-05-28T02:32:42.688Z,13.27
2019-05-28T02:35:12.758Z,13.83
2019-05-28T02:37:42.222Z,13.90
2019-05-28T02:40:13.230Z,13.87
2019-05-28T02:42:42.723Z,13.20
2019-05-28T02:45:13.105Z,12.43
2019-05-28T02:47:42.520Z,11.63
2019-05-28T02:50:14.100Z,12.80
2019-05-28T02:52:44.768Z,12.57
2019-05-28T02:55:14.742Z,12.67
2019-05-28T02:57:46.027Z,11.93
2019-05-28T03:00:16.013Z,11.83
2019-05-28T03:02:48.202Z,11.90
2019-05-28T03:05:18.454Z,11.37
2019-05-28T03:07:48.060Z,11.50
2019-05-28T03:10:24.629Z,11.53
2019-05-28T03:12:54.025Z,10.47
2019-05-28T03:15:23.815Z,11.07
2019-05-28T03:17:53.769Z,10.23
2019-05-28T03:20:23.262Z,10.67
2019-05-28T03:22:53.606Z,10.93
2019-05-28T03:25:24.194Z,10.80
2019-05-28T03:27:53.626Z,11.23
2019-05-28T03:30:23.156Z,10.40
2019-05-28T03:32:53.138Z,10.90
2019-05-28T03:35:23.015Z,10.20
2019-05-28T03:37:54.413Z,10.77
2019-05-28T03:40:42.499Z,9.67
2019-05-28T03:43:12.215Z,10.57
2019-05-28T03:45:41.692Z,10.03
2019-05-28T03:48:11.614Z,9.83
2019-05-28T03:50:41.210Z,9.93
2019-05-28T03:53:10.653Z,9.80
2019-05-28T03:55:40.286Z,10.63
2019-05-28T03:58:09.776Z,10.80
2019-05-28T04:00:39.326Z,10.67
2019-05-28T04:03:09.142Z,9.80
2019-05-28T04:05:38.597Z,10.50
2019-05-28T04:08:08.006Z,10.33
2019-05-28T04:10:37.441Z,10.30
2019-05-28T04:13:06.925Z,10.27
2019-05-28T04:15:36.405Z,11.10
2019-05-28T04:18:05.893Z,9.90
2019-05-28T04:20:35.940Z,10.17
2019-05-28T04:23:09.454Z,10.03
2019-05-28T04:25:39.133Z,10.97
2019-05-28T04:28:08.590Z,10.73
2019-05-28T04:30:38.067Z,10.00
2019-05-28T04:33:07.792Z,9.83
2019-05-28T04:35:37.240Z,10.37
2019-05-28T04:38:07.022Z,9.93
2019-05-28T04:40:36.513Z,10.17
2019-05-28T04:43:05.993Z,9.80
2019-05-28T04:45:35.734Z,9.97
2019-05-28T04:48:05.394Z,10.17
2019-05-28T04:50:35.112Z,10.30
2019-05-28T04:53:04.774Z,10.37
2019-05-28T04:55:34.236Z,10.07
2019-05-28T04:58:03.678Z,10.10
2019-05-28T05:00:33.113Z,10.17
2019-05-28T05:03:03.193Z,11.10
2019-05-28T05:05:32.771Z,10.20
2019-05-28T05:08:02.218Z,10.07
2019-05-28T05:10:31.659Z,9.47
2019-05-28T05:13:01.130Z,10.47
2019-05-28T05:15:30.600Z,11.37
2019-05-28T05:18:00.389Z,11.20
2019-05-28T05:20:30.159Z,11.53
2019-05-28T05:23:00.185Z,12.73
2019-05-28T05:25:29.627Z,12.17
2019-05-28T05:27:59.021Z,11.83
2019-05-28T05:30:28.825Z,10.90
2019-05-28T05:33:16.337Z,9.97
2019-05-28T05:35:29.676Z,10.57
2019-05-28T05:37:59.389Z,10.50
2019-05-28T05:40:29.214Z,11.87
2019-05-28T05:42:58.645Z,11.70
2019-05-28T05:45:28.062Z,10.00
2019-05-28T05:47:57.661Z,11.13
2019-05-28T05:50:27.128Z,10.33
2019-05-28T05:52:56.513Z,10.73
2019-05-28T05:55:26.185Z,11.40
2019-05-28T05:57:55.957Z,11.27
2019-05-28T06:00:25.436Z,10.67
2019-05-28T06:02:54.887Z,10.40
2019-05-28T06:05:24.353Z,10.67
2019-05-28T06:07:53.836Z,9.63
2019-05-28T06:10:23.301Z,10.40
2019-05-28T06:12:52.746Z,12.67
2019-05-28T06:15:22.310Z,10.57
2019-05-28T06:17:51.790Z,9.00
2019-05-28T06:20:21.542Z,9.97
2019-05-28T06:22:51.036Z,9.70
2019-05-28T06:25:20.551Z,10.10
2019-05-28T06:27:50.350Z,10.03
2019-05-28T06:30:19.826Z,10.07
2019-05-28T06:32:49.323Z,10.40
2019-05-28T06:35:18.874Z,9.47
2019-05-28T06:37:48.599Z,10.10
2019-05-28T06:40:18.342Z,9.60
2019-05-28T06:42:48.150Z,9.53
2019-05-28T06:45:18.317Z,9.57
2019-05-28T06:47:47.706Z,10.23
2019-05-28T06:50:17.763Z,9.60
2019-05-28T06:52:47.500Z,9.90
2019-05-28T06:55:17.361Z,9.80
2019-05-28T06:57:47.110Z,9.43
2019-05-28T07:00:17.153Z,10.17
2019-05-28T07:02:46.539Z,9.57
2019-05-28T07:05:16.189Z,9.60
2019-05-28T07:07:46.147Z,9.53
2019-05-28T07:10:15.965Z,9.03
2019-05-28T07:12:45.722Z,10.13
2019-05-28T07:15:15.207Z,9.33
2019-05-28T07:17:44.716Z,10.07
2019-05-28T07:20:14.265Z,10.23
2019-05-28T07:22:43.825Z,10.30
2019-05-28T07:25:13.541Z,10.13
2019-05-28T07:27:43.880Z,10.40
2019-05-28T07:30:13.664Z,10.50
2019-05-28T07:32:43.403Z,10.63
2019-05-28T07:35:13.136Z,9.23
2019-05-28T07:37:43.287Z,9.77
2019-05-28T07:40:28.146Z,10.30
2019-05-28T07:42:44.249Z,11.00
2019-05-28T07:45:14.036Z,9.77
2019-05-28T07:47:43.762Z,11.23
2019-05-28T07:50:13.388Z,10.53
2019-05-28T07:52:43.462Z,8.97
2019-05-28T07:55:12.943Z,10.00
2019-05-28T07:57:42.782Z,10.73
2019-05-28T08:00:12.801Z,10.73
2019-05-28T08:02:42.553Z,10.07
2019-05-28T08:05:16.890Z,9.20
2019-05-28T08:07:44.043Z,9.50
2019-05-28T08:10:14.097Z,9.10
2019-05-28T08:12:43.466Z,9.77
2019-05-28T08:15:13.146Z,9.60
2019-05-28T08:17:42.539Z,9.50
2019-05-28T08:20:12.116Z,9.23
2019-05-28T08:22:43.221Z,10.10
2019-05-28T08:25:23.952Z,9.27
2019-05-28T08:27:44.219Z,10.03
2019-05-28T08:30:13.968Z,9.90
2019-05-28T08:32:43.751Z,8.87
2019-05-28T08:35:13.373Z,10.63
2019-05-28T08:37:42.778Z,10.30
2019-05-28T08:40:12.717Z,10.70
2019-05-28T08:42:42.516Z,10.50
2019-05-28T08:45:12.288Z,11.10
2019-05-28T08:47:41.737Z,10.67
2019-05-28T08:50:11.396Z,12.00
2019-05-28T08:52:40.877Z,11.53
2019-05-28T08:55:10.539Z,12.10
2019-05-28T08:57:40.076Z,12.77
2019-05-28T09:00:11.471Z,11.47
2019-05-28T09:02:41.192Z,12.80
2019-05-28T09:05:25.024Z,11.97
2019-05-28T09:07:42.061Z,14.23
2019-05-28T09:10:11.480Z,9.63
2019-05-28T09:12:40.920Z,10.07
2019-05-28T09:15:10.388Z,10.33
2019-05-28T09:17:40.495Z,10.20
2019-05-28T09:20:09.981Z,11.67
2019-05-28T09:22:39.355Z,13.00
2019-05-28T09:25:08.825Z,12.43
2019-05-28T09:27:38.213Z,11.17
2019-05-28T09:30:09.962Z,11.10
2019-05-28T09:32:39.433Z,10.30
2019-05-28T09:35:09.239Z,10.93
2019-05-28T09:37:38.710Z,12.87
2019-05-28T09:40:08.957Z,13.03
2019-05-28T09:42:38.435Z,11.23
2019-05-28T09:45:21.732Z,11.55
2019-05-28T09:47:39.625Z,10.00
2019-05-28T09:50:29.321Z,9.48
2019-05-28T09:52:53.615Z,9.13
2019-05-28T09:55:11.966Z,9.80
2019-05-28T09:57:47.249Z,11.30
2019-05-28T10:00:16.830Z,12.83
2019-05-28T10:02:46.322Z,12.23
2019-05-28T10:05:16.080Z,10.20
2019-05-28T10:07:45.487Z,8.10
2019-05-28T10:10:15.135Z,7.50
2019-05-28T10:12:44.693Z,7.83
2019-05-28T10:15:14.448Z,8.47
2019-05-28T10:17:43.870Z,10.70
2019-05-28T10:20:15.205Z,12.73
2019-05-28T10:22:45.163Z,11.20
2019-05-28T10:25:15.326Z,9.27
2019-05-28T10:27:59.318Z,10.53
2019-05-28T10:30:16.331Z,11.20
2019-05-28T10:32:45.788Z,12.07
2019-05-28T10:35:15.664Z,36.90
2019-05-28T10:37:45.143Z,51.53
2019-05-28T10:40:14.918Z,39.67
2019-05-28T10:42:44.677Z,46.97
2019-05-28T10:45:15.165Z,37.83
2019-05-28T10:47:44.635Z,26.03
2019-05-28T10:50:14.565Z,25.97
2019-05-28T10:52:44.027Z,21.83
2019-05-28T10:55:15.927Z,22.37
2019-05-28T10:57:44.868Z,18.50
2019-05-28T11:00:15.944Z,17.50
2019-05-28T11:02:45.398Z,13.97
2019-05-28T11:05:15.330Z,13.00
2019-05-28T11:07:44.808Z,13.33
2019-05-28T11:10:23.793Z,14.20
2019-05-28T11:12:46.333Z,14.47
2019-05-28T11:15:17.505Z,14.80
2019-05-28T11:17:47.021Z,14.90
2019-05-28T11:20:17.223Z,13.17
2019-05-28T11:22:46.682Z,12.67
2019-05-28T11:25:16.447Z,12.10
2019-05-28T11:27:45.974Z,9.73
2019-05-28T11:30:17.355Z,9.50
2019-05-28T11:32:47.430Z,8.70
2019-05-28T11:35:18.165Z,10.07
2019-05-28T11:37:47.641Z,8.07
2019-05-28T11:40:18.730Z,9.07
2019-05-28T11:42:48.256Z,16.20
2019-05-28T11:45:18.772Z,16.57
2019-05-28T11:47:50.653Z,13.90
2019-05-28T11:50:20.263Z,10.80
2019-05-28T11:52:53.308Z,11.07
2019-05-28T11:55:23.414Z,7.80
2019-05-28T11:57:52.845Z,8.40
2019-05-28T12:00:24.056Z,10.33
2019-05-28T12:02:53.506Z,9.60
2019-05-28T12:05:23.485Z,8.60
2019-05-28T12:07:53.020Z,8.27
2019-05-28T12:10:22.882Z,7.33
2019-05-28T12:12:52.320Z,9.37
2019-05-28T12:15:24.861Z,10.07
2019-05-28T12:17:54.668Z,12.23
2019-05-28T12:20:24.445Z,9.40
2019-05-28T12:23:09.437Z,9.48
2019-05-28T12:25:25.726Z,8.88
2019-05-28T12:27:55.409Z,9.47
2019-05-28T12:30:26.868Z,8.50
2019-05-28T12:32:57.118Z,8.73
2019-05-28T12:35:30.048Z,12.80
2019-05-28T12:37:58.749Z,14.57
2019-05-28T12:40:45.817Z,15.50
2019-05-28T12:42:59.918Z,15.30
2019-05-28T12:45:35.449Z,13.67
2019-05-28T12:48:12.161Z,12.93
2019-05-28T12:50:31.961Z,10.57
2019-05-28T12:53:01.705Z,11.07
2019-05-28T12:55:31.771Z,10.67
2019-05-28T12:58:01.420Z,9.97
2019-05-28T13:00:32.333Z,10.93
2019-05-28T13:03:02.335Z,12.80
2019-05-28T13:05:31.924Z,11.70
2019-05-28T13:08:09.075Z,12.43
2019-05-28T13:10:33.121Z,15.47
2019-05-28T13:13:02.677Z,9.33
2019-05-28T13:15:32.525Z,12.60
2019-05-28T13:18:02.188Z,17.40
2019-05-28T13:20:31.653Z,14.63
2019-05-28T13:23:01.522Z,9.97
2019-05-28T13:25:31.250Z,8.30
2019-05-28T13:28:00.719Z,9.03
2019-05-28T13:30:30.164Z,9.87
2019-05-28T13:32:59.967Z,10.37
2019-05-28T13:35:30.039Z,11.73
2019-05-28T13:37:59.817Z,9.23
2019-05-28T13:40:29.207Z,9.77
2019-05-28T13:42:58.709Z,9.10
2019-05-28T13:45:28.178Z,11.97
2019-05-28T13:47:58.032Z,16.27
2019-05-28T13:50:29.464Z,8.30
2019-05-28T13:52:59.103Z,9.23
2019-05-28T13:55:28.830Z,9.07
2019-05-28T13:57:58.635Z,7.53
2019-05-28T14:00:28.674Z,7.77
2019-05-28T14:02:58.216Z,7.57
2019-05-28T14:05:27.725Z,8.27
2019-05-28T14:07:57.560Z,8.93
2019-05-28T14:10:26.993Z,8.30
2019-05-28T14:12:56.545Z,9.10
2019-05-28T14:15:26.503Z,8.07
2019-05-28T14:17:55.985Z,8.20
2019-05-28T14:20:25.465Z,9.53
2019-05-28T14:22:55.545Z,9.48
2019-05-28T14:25:25.058Z,9.50
2019-05-28T14:27:54.597Z,9.90
2019-05-28T14:30:24.585Z,10.97
2019-05-28T14:32:54.332Z,12.27
2019-05-28T14:35:24.061Z,12.70
2019-05-28T14:37:53.442Z,14.63
2019-05-28T14:40:24.482Z,16.83
2019-05-28T14:42:54.378Z,16.93
2019-05-28T14:45:25.226Z,17.77
2019-05-28T14:47:55.521Z,20.87
2019-05-28T14:50:25.192Z,21.67
2019-05-28T14:52:54.680Z,19.77
2019-05-28T14:55:24.283Z,26.93
2019-05-28T14:57:59.626Z,33.07
2019-05-28T15:00:29.132Z,27.63
2019-05-28T15:02:58.892Z,28.83
2019-05-28T15:05:28.677Z,36.80
2019-05-28T15:07:58.054Z,30.53
2019-05-28T15:10:27.498Z,30.37
2019-05-28T15:12:57.003Z,26.53
2019-05-28T15:15:36.064Z,27.53
2019-05-28T15:17:59.139Z,30.80
2019-05-28T15:20:29.315Z,27.93
2019-05-28T15:22:58.862Z,25.60
2019-05-28T15:25:28.901Z,25.57
2019-05-28T15:27:58.901Z,30.77
2019-05-28T15:30:28.594Z,32.83
2019-05-28T15:32:58.070Z,25.90
2019-05-28T15:35:27.860Z,22.47
2019-05-28T15:37:57.329Z,26.23
2019-05-28T15:40:26.983Z,13.83
2019-05-28T15:43:05.741Z,10.83
2019-05-28T15:45:27.602Z,10.90
2019-05-28T15:47:57.613Z,10.70
2019-05-28T15:50:27.419Z,10.50
2019-05-28T15:52:58.918Z,9.20
2019-05-28T15:55:28.246Z,11.10
2019-05-28T15:57:58.247Z,11.00
2019-05-28T16:00:27.715Z,11.53
2019-05-28T16:02:57.462Z,11.43
2019-05-28T16:05:26.921Z,12.63
2019-05-28T16:07:56.468Z,11.83
2019-05-28T16:10:26.192Z,14.47
2019-05-28T16:12:55.642Z,14.53
2019-05-28T16:15:25.125Z,17.90
2019-05-28T16:17:54.864Z,17.67
2019-05-28T16:20:24.521Z,19.57
2019-05-28T16:22:53.983Z,20.53
2019-05-28T16:25:23.767Z,21.50
2019-05-28T16:27:53.311Z,23.00
2019-05-28T16:30:23.907Z,21.63
2019-05-28T16:32:53.370Z,22.83
2019-05-28T16:35:22.849Z,25.23
2019-05-28T16:37:52.478Z,27.80
2019-05-28T16:40:22.010Z,35.30
2019-05-28T16:42:51.508Z,38.93
2019-05-28T16:45:21.564Z,29.10
2019-05-28T16:47:51.361Z,40.70
2019-05-28T16:50:20.896Z,36.03
2019-05-28T16:53:02.612Z,26.07
2019-05-28T16:55:32.777Z,31.03
2019-05-28T16:58:02.264Z,30.60
2019-05-28T17:00:31.770Z,26.13
2019-05-28T17:03:01.270Z,28.67
2019-05-28T17:05:30.751Z,38.50
2019-05-28T17:08:00.462Z,38.73
2019-05-28T17:10:33.359Z,29.73
2019-05-28T17:13:01.054Z,29.50
2019-05-28T17:15:30.551Z,31.83
2019-05-28T17:18:00.372Z,27.23
2019-05-28T17:20:32.550Z,36.67
2019-05-28T17:23:02.678Z,34.47
2019-05-28T17:25:32.251Z,38.90
2019-05-28T17:28:01.981Z,36.50
2019-05-28T17:30:31.429Z,33.40
2019-05-28T17:33:00.841Z,33.90
2019-05-28T17:35:30.489Z,25.47
2019-05-28T17:37:59.853Z,21.00
2019-05-28T17:40:29.717Z,17.33
2019-05-28T17:42:59.502Z,17.13
2019-05-28T17:45:28.892Z,17.47
2019-05-28T17:47:58.324Z,17.10
2019-05-28T17:50:28.174Z,15.30
2019-05-28T17:52:57.809Z,17.30
2019-05-28T17:55:27.420Z,17.43
2019-05-28T17:57:57.121Z,17.73
2019-05-28T18:00:26.682Z,15.63
2019-05-28T18:02:56.161Z,16.97
2019-05-28T18:05:26.203Z,16.63
2019-05-28T18:07:55.861Z,14.67
2019-05-28T18:10:25.606Z,15.17
2019-05-28T18:12:55.363Z,14.87
2019-05-28T18:15:24.871Z,14.43
2019-05-28T18:17:54.377Z,15.30
2019-05-28T18:20:24.090Z,13.63
2019-05-28T18:22:53.568Z,14.43
2019-05-28T18:25:23.349Z,13.43
2019-05-28T18:27:53.724Z,14.23
2019-05-28T18:30:23.201Z,13.30
2019-05-28T18:32:53.001Z,13.27
2019-05-28T18:35:22.590Z,12.27
2019-05-28T18:37:52.220Z,14.70
2019-05-28T18:40:21.895Z,11.20
2019-05-28T18:42:51.629Z,17.23
2019-05-28T18:45:21.148Z,18.67
2019-05-28T18:47:50.858Z,19.47
2019-05-28T18:50:20.489Z,20.17
2019-05-28T18:52:50.031Z,21.27
2019-05-28T18:55:19.753Z,20.10
2019-05-28T18:57:51.127Z,21.60
2019-05-28T19:00:21.051Z,22.53
2019-05-28T19:02:50.568Z,20.77
2019-05-28T19:05:20.315Z,21.10
2019-05-28T19:07:50.148Z,21.20
2019-05-28T19:10:19.641Z,20.00
2019-05-28T19:12:49.492Z,19.23
2019-05-28T19:15:19.790Z,17.50
2019-05-28T19:17:49.553Z,15.90
2019-05-28T19:20:19.018Z,18.67
2019-05-28T19:22:48.815Z,19.13
2019-05-28T19:25:18.561Z,17.50
2019-05-28T19:27:47.956Z,18.07
2019-05-28T19:30:20.711Z,17.87
2019-05-28T19:32:50.547Z,17.53
2019-05-28T19:35:20.301Z,16.40
2019-05-28T19:37:50.443Z,16.40
2019-05-28T19:40:29.464Z,17.17
2019-05-28T19:42:59.170Z,15.60
2019-05-28T19:45:29.010Z,15.27
2019-05-28T19:47:58.477Z,14.80
2019-05-28T19:50:27.872Z,14.50
2019-05-28T19:52:57.596Z,14.43
2019-05-28T19:55:27.096Z,13.70
2019-05-28T19:57:57.144Z,12.30
2019-05-28T20:00:26.660Z,12.83
2019-05-28T20:02:56.071Z,11.67
2019-05-28T20:05:25.537Z,10.27
2019-05-28T20:07:55.291Z,11.27
2019-05-28T20:10:25.052Z,11.17
2019-05-28T20:12:54.536Z,11.60
2019-05-28T20:15:24.586Z,10.53
2019-05-28T20:17:56.547Z,10.93
2019-05-28T20:20:26.288Z,11.03
2019-05-28T20:22:56.184Z,10.27
2019-05-28T20:25:25.914Z,13.57
2019-05-28T20:27:56.027Z,11.13
2019-05-28T20:30:26.203Z,11.43
2019-05-28T20:32:56.068Z,11.47
2019-05-28T20:35:25.606Z,11.20
2019-05-28T20:37:55.132Z,12.70
2019-05-28T20:40:24.970Z,12.40
2019-05-28T20:42:54.752Z,12.20
2019-05-28T20:45:24.757Z,12.53
2019-05-28T20:47:54.161Z,13.37
2019-05-28T20:50:23.528Z,12.27
2019-05-28T20:52:52.949Z,12.20
2019-05-28T20:55:22.635Z,13.00
2019-05-28T20:57:53.240Z,12.43
2019-05-28T21:00:22.801Z,13.27
2019-05-28T21:02:52.328Z,14.33
2019-05-28T21:05:21.724Z,11.77
2019-05-28T21:07:52.965Z,11.80
2019-05-28T21:10:22.352Z,11.33
2019-05-28T21:12:52.707Z,10.73
2019-05-28T21:15:23.630Z,10.33
2019-05-28T21:17:53.207Z,10.47
2019-05-28T21:20:22.612Z,9.73
2019-05-28T21:22:52.316Z,11.10
2019-05-28T21:25:22.069Z,10.90
2019-05-28T21:27:52.298Z,10.80
2019-05-28T21:30:22.345Z,11.03
2019-05-28T21:32:52.582Z,11.90
2019-05-28T21:35:22.373Z,12.20
2019-05-28T21:37:53.083Z,9.30
2019-05-28T21:40:22.850Z,10.97
2019-05-28T21:43:02.405Z,11.97
2019-05-28T21:45:23.802Z,11.33
2019-05-28T21:47:54.369Z,11.03
2019-05-28T21:50:24.129Z,12.63
2019-05-28T21:52:54.840Z,13.23
2019-05-28T21:55:24.324Z,11.60
2019-05-28T21:57:53.987Z,11.93
2019-05-28T22:00:35.113Z,11.00
2019-05-28T22:03:05.122Z,9.47
2019-05-28T22:05:34.933Z,12.40
2019-05-28T22:08:04.834Z,11.83
2019-05-28T22:10:34.407Z,12.50
2019-05-28T22:13:18.398Z,12.33
2019-05-28T22:15:35.480Z,11.93
2019-05-28T22:18:05.218Z,12.00
2019-05-28T22:20:34.890Z,11.57
2019-05-28T22:23:04.709Z,10.70
2019-05-28T22:25:34.149Z,9.90
2019-05-28T22:28:03.540Z,10.33
2019-05-28T22:30:33.282Z,10.93
2019-05-28T22:33:04.006Z,11.17
2019-05-28T22:35:33.545Z,10.27
2019-05-28T22:38:03.379Z,10.20
2019-05-28T22:40:33.117Z,10.13
2019-05-28T22:43:03.609Z,9.47
2019-05-28T22:45:33.726Z,10.00
2019-05-28T22:48:06.488Z,10.60
2019-05-28T22:50:34.293Z,9.17
2019-05-28T22:53:04.001Z,9.60
2019-05-28T22:55:33.424Z,9.83
2019-05-28T22:58:02.876Z,9.60
2019-05-28T23:00:32.500Z,10.23
2019-05-28T23:03:02.959Z,9.50
2019-05-28T23:05:32.429Z,9.90
2019-05-28T23:08:01.803Z,9.60
2019-05-28T23:10:31.290Z,10.17
2019-05-28T23:13:00.952Z,9.37
2019-05-28T23:15:30.671Z,10.07
2019-05-28T23:18:00.424Z,9.57
2019-05-28T23:20:29.848Z,9.50
2019-05-28T23:23:00.868Z,9.73
2019-05-28T23:25:30.580Z,9.67
2019-05-28T23:28:01.390Z,10.60
2019-05-28T23:30:31.169Z,11.50
2019-05-28T23:33:02.302Z,11.50
2019-05-28T23:35:32.084Z,9.90
2019-05-28T23:38:02.642Z,9.90
2019-05-28T23:40:32.467Z,9.47
2019-05-28T23:43:01.944Z,10.60
2019-05-28T23:45:32.870Z,10.67
2019-05-28T23:48:02.661Z,10.90
2019-05-28T23:50:33.946Z,9.90
2019-05-28T23:53:03.391Z,10.63
2019-05-28T23:55:32.882Z,10.33
2019-05-28T23:58:02.402Z,8.87
